sensor_id;sensor_type;location;lat;lon;timestamp;temperature;humidity
44477;DHT22;30180;44.788;10.366;2022-08-19T00:01:49;26.20;63.10
44477;DHT22;30180;44.788;10.366;2022-08-19T00:04:21;26.20;63.10
44477;DHT22;30180;44.788;10.366;2022-08-19T00:06:49;26.20;63.20
44477;DHT22;30180;44.788;10.366;2022-08-19T00:09:21;26.20;63.20
44477;DHT22;30180;44.788;10.366;2022-08-19T00:11:50;26.20;63.20
44477;DHT22;30180;44.788;10.366;2022-08-19T00:14:19;26.20;63.20
44477;DHT22;30180;44.788;10.366;2022-08-19T00:16:49;26.20;63.20
44477;DHT22;30180;44.788;10.366;2022-08-19T00:19:18;26.20;63.20
44477;DHT22;30180;44.788;10.366;2022-08-19T00:21:46;26.20;63.20
44477;DHT22;30180;44.788;10.366;2022-08-19T00:24:15;26.20;63.20
44477;DHT22;30180;44.788;10.366;2022-08-19T00:26:45;26.20;63.20
44477;DHT22;30180;44.788;10.366;2022-08-19T00:29:17;26.20;63.20
44477;DHT22;30180;44.788;10.366;2022-08-19T00:31:46;26.20;63.20
44477;DHT22;30180;44.788;10.366;2022-08-19T00:34:16;26.20;63.20
44477;DHT22;30180;44.788;10.366;2022-08-19T00:36:45;26.20;63.20
44477;DHT22;30180;44.788;10.366;2022-08-19T00:39:14;26.20;63.30
44477;DHT22;30180;44.788;10.366;2022-08-19T00:41:45;26.20;63.20
44477;DHT22;30180;44.788;10.366;2022-08-19T00:44:18;26.20;63.30
44477;DHT22;30180;44.788;10.366;2022-08-19T00:46:54;26.20;63.20
44477;DHT22;30180;44.788;10.366;2022-08-19T00:49:29;26.20;63.20
44477;DHT22;30180;44.788;10.366;2022-08-19T00:52:03;26.20;63.20
44477;DHT22;30180;44.788;10.366;2022-08-19T00:54:32;26.20;63.30
44477;DHT22;30180;44.788;10.366;2022-08-19T00:57:05;26.20;63.30
44477;DHT22;30180;44.788;10.366;2022-08-19T00:59:35;26.20;63.30
44477;DHT22;30180;44.788;10.366;2022-08-19T01:02:25;26.20;63.30
44477;DHT22;30180;44.788;10.366;2022-08-19T01:04:54;26.20;63.30
44477;DHT22;30180;44.788;10.366;2022-08-19T01:07:22;26.20;63.30
44477;DHT22;30180;44.788;10.366;2022-08-19T01:09:50;26.20;63.30
44477;DHT22;30180;44.788;10.366;2022-08-19T01:12:20;26.20;63.30
44477;DHT22;30180;44.788;10.366;2022-08-19T01:14:50;26.20;63.30
44477;DHT22;30180;44.788;10.366;2022-08-19T01:17:20;26.20;63.30
44477;DHT22;30180;44.788;10.366;2022-08-19T01:19:48;26.20;63.30
44477;DHT22;30180;44.788;10.366;2022-08-19T01:22:25;26.20;63.30
44477;DHT22;30180;44.788;10.366;2022-08-19T01:24:59;26.20;63.30
44477;DHT22;30180;44.788;10.366;2022-08-19T01:27:37;26.10;63.20
44477;DHT22;30180;44.788;10.366;2022-08-19T01:30:11;26.10;63.20
44477;DHT22;30180;44.788;10.366;2022-08-19T01:32:39;26.20;63.30
44477;DHT22;30180;44.788;10.366;2022-08-19T01:35:08;26.10;63.30
44477;DHT22;30180;44.788;10.366;2022-08-19T01:37:48;26.20;63.30
44477;DHT22;30180;44.788;10.366;2022-08-19T01:40:19;26.20;63.40
44477;DHT22;30180;44.788;10.366;2022-08-19T01:42:48;26.20;63.30
44477;DHT22;30180;44.788;10.366;2022-08-19T01:45:17;26.20;63.30
44477;DHT22;30180;44.788;10.366;2022-08-19T01:47:45;26.10;63.30
44477;DHT22;30180;44.788;10.366;2022-08-19T01:50:29;26.20;63.30
44477;DHT22;30180;44.788;10.366;2022-08-19T01:52:59;26.10;63.20
44477;DHT22;30180;44.788;10.366;2022-08-19T01:55:36;26.10;63.30
44477;DHT22;30180;44.788;10.366;2022-08-19T01:58:08;26.10;63.30
44477;DHT22;30180;44.788;10.366;2022-08-19T02:00:38;26.10;63.30
44477;DHT22;30180;44.788;10.366;2022-08-19T02:03:07;26.20;63.40
44477;DHT22;30180;44.788;10.366;2022-08-19T02:05:36;26.10;63.90
44477;DHT22;30180;44.788;10.366;2022-08-19T02:08:06;26.20;63.40
44477;DHT22;30180;44.788;10.366;2022-08-19T02:10:37;26.10;63.30
44477;DHT22;30180;44.788;10.366;2022-08-19T02:13:05;26.10;63.30
44477;DHT22;30180;44.788;10.366;2022-08-19T02:15:33;26.10;63.30
44477;DHT22;30180;44.788;10.366;2022-08-19T02:18:02;26.20;63.40
44477;DHT22;30180;44.788;10.366;2022-08-19T02:20:30;26.10;63.30
44477;DHT22;30180;44.788;10.366;2022-08-19T02:22:58;26.10;63.30
44477;DHT22;30180;44.788;10.366;2022-08-19T02:25:29;26.10;63.40
44477;DHT22;30180;44.788;10.366;2022-08-19T02:27:57;26.10;63.40
44477;DHT22;30180;44.788;10.366;2022-08-19T02:30:26;26.10;63.40
44477;DHT22;30180;44.788;10.366;2022-08-19T02:32:54;26.10;63.30
44477;DHT22;30180;44.788;10.366;2022-08-19T02:35:23;26.10;63.40
44477;DHT22;30180;44.788;10.366;2022-08-19T02:37:51;26.10;63.40
44477;DHT22;30180;44.788;10.366;2022-08-19T02:40:38;26.10;63.40
44477;DHT22;30180;44.788;10.366;2022-08-19T02:43:08;26.10;63.40
44477;DHT22;30180;44.788;10.366;2022-08-19T02:45:38;26.10;63.40
44477;DHT22;30180;44.788;10.366;2022-08-19T02:48:08;26.10;63.40
44477;DHT22;30180;44.788;10.366;2022-08-19T02:50:49;26.10;63.40
44477;DHT22;30180;44.788;10.366;2022-08-19T02:53:23;26.10;63.40
44477;DHT22;30180;44.788;10.366;2022-08-19T02:55:53;26.10;63.50
44477;DHT22;30180;44.788;10.366;2022-08-19T02:58:22;26.10;63.40
44477;DHT22;30180;44.788;10.366;2022-08-19T03:00:53;26.10;63.40
44477;DHT22;30180;44.788;10.366;2022-08-19T03:03:22;26.10;63.40
44477;DHT22;30180;44.788;10.366;2022-08-19T03:05:50;26.10;63.40
44477;DHT22;30180;44.788;10.366;2022-08-19T03:08:23;26.10;63.40
44477;DHT22;30180;44.788;10.366;2022-08-19T03:10:53;26.10;63.60
44477;DHT22;30180;44.788;10.366;2022-08-19T03:13:22;26.10;63.40
44477;DHT22;30180;44.788;10.366;2022-08-19T03:15:51;26.10;63.40
44477;DHT22;30180;44.788;10.366;2022-08-19T03:18:19;26.10;63.40
44477;DHT22;30180;44.788;10.366;2022-08-19T03:20:50;26.10;63.40
44477;DHT22;30180;44.788;10.366;2022-08-19T03:23:19;26.10;63.40
44477;DHT22;30180;44.788;10.366;2022-08-19T03:25:49;26.10;63.40
44477;DHT22;30180;44.788;10.366;2022-08-19T03:28:39;26.10;63.40
44477;DHT22;30180;44.788;10.366;2022-08-19T03:31:14;26.10;63.40
44477;DHT22;30180;44.788;10.366;2022-08-19T03:34:02;26.10;63.40
44477;DHT22;30180;44.788;10.366;2022-08-19T03:36:33;26.10;63.40
44477;DHT22;30180;44.788;10.366;2022-08-19T03:39:02;26.10;63.40
44477;DHT22;30180;44.788;10.366;2022-08-19T03:41:32;26.10;63.50
44477;DHT22;30180;44.788;10.366;2022-08-19T03:44:14;26.10;63.40
44477;DHT22;30180;44.788;10.366;2022-08-19T03:46:45;26.10;63.40
44477;DHT22;30180;44.788;10.366;2022-08-19T03:49:13;26.10;63.50
44477;DHT22;30180;44.788;10.366;2022-08-19T03:51:44;26.10;63.50
44477;DHT22;30180;44.788;10.366;2022-08-19T03:54:14;26.10;63.50
44477;DHT22;30180;44.788;10.366;2022-08-19T03:56:45;26.10;63.50
44477;DHT22;30180;44.788;10.366;2022-08-19T03:59:18;26.10;64.10
44477;DHT22;30180;44.788;10.366;2022-08-19T04:01:47;26.10;63.50
44477;DHT22;30180;44.788;10.366;2022-08-19T04:04:15;26.10;64.10
44477;DHT22;30180;44.788;10.366;2022-08-19T04:06:45;26.10;63.50
44477;DHT22;30180;44.788;10.366;2022-08-19T04:09:15;26.10;63.50
44477;DHT22;30180;44.788;10.366;2022-08-19T04:11:46;26.10;63.50
44477;DHT22;30180;44.788;10.366;2022-08-19T04:14:18;26.10;63.50
44477;DHT22;30180;44.788;10.366;2022-08-19T04:16:48;26.10;63.50
44477;DHT22;30180;44.788;10.366;2022-08-19T04:19:17;26.10;63.50
44477;DHT22;30180;44.788;10.366;2022-08-19T04:21:48;26.10;63.50
44477;DHT22;30180;44.788;10.366;2022-08-19T04:24:17;26.10;63.50
44477;DHT22;30180;44.788;10.366;2022-08-19T04:26:46;26.10;63.50
44477;DHT22;30180;44.788;10.366;2022-08-19T04:29:18;26.10;63.50
44477;DHT22;30180;44.788;10.366;2022-08-19T04:31:49;26.10;63.50
44477;DHT22;30180;44.788;10.366;2022-08-19T04:34:19;26.10;63.50
44477;DHT22;30180;44.788;10.366;2022-08-19T04:36:50;26.00;63.40
44477;DHT22;30180;44.788;10.366;2022-08-19T04:39:21;26.10;63.50
44477;DHT22;30180;44.788;10.366;2022-08-19T04:41:49;26.00;63.40
44477;DHT22;30180;44.788;10.366;2022-08-19T04:44:36;26.10;63.50
44477;DHT22;30180;44.788;10.366;2022-08-19T04:47:12;26.10;63.50
44477;DHT22;30180;44.788;10.366;2022-08-19T04:49:40;26.00;63.40
44477;DHT22;30180;44.788;10.366;2022-08-19T04:52:08;26.00;63.40
44477;DHT22;30180;44.788;10.366;2022-08-19T04:54:36;26.10;63.50
44477;DHT22;30180;44.788;10.366;2022-08-19T04:57:07;26.10;63.50
44477;DHT22;30180;44.788;10.366;2022-08-19T04:59:38;26.10;63.50
44477;DHT22;30180;44.788;10.366;2022-08-19T05:02:08;26.10;63.50
44477;DHT22;30180;44.788;10.366;2022-08-19T05:04:37;26.10;63.50
44477;DHT22;30180;44.788;10.366;2022-08-19T05:07:07;26.00;63.40
44477;DHT22;30180;44.788;10.366;2022-08-19T05:09:36;26.00;63.40
44477;DHT22;30180;44.788;10.366;2022-08-19T05:12:24;26.10;63.50
44477;DHT22;30180;44.788;10.366;2022-08-19T05:14:57;26.10;63.50
44477;DHT22;30180;44.788;10.366;2022-08-19T05:17:26;26.00;63.40
44477;DHT22;30180;44.788;10.366;2022-08-19T05:19:59;26.00;63.40
44477;DHT22;30180;44.788;10.366;2022-08-19T05:22:46;26.00;63.40
44477;DHT22;30180;44.788;10.366;2022-08-19T05:25:17;26.00;63.40
44477;DHT22;30180;44.788;10.366;2022-08-19T05:27:47;26.00;63.40
44477;DHT22;30180;44.788;10.366;2022-08-19T05:30:17;26.00;63.40
44477;DHT22;30180;44.788;10.366;2022-08-19T05:33:06;26.00;63.40
44477;DHT22;30180;44.788;10.366;2022-08-19T05:35:36;26.00;63.40
44477;DHT22;30180;44.788;10.366;2022-08-19T05:38:04;26.00;63.40
44477;DHT22;30180;44.788;10.366;2022-08-19T05:40:34;26.00;63.40
44477;DHT22;30180;44.788;10.366;2022-08-19T05:43:02;26.00;63.40
44477;DHT22;30180;44.788;10.366;2022-08-19T05:45:32;26.00;63.40
44477;DHT22;30180;44.788;10.366;2022-08-19T05:48:05;26.00;63.40
44477;DHT22;30180;44.788;10.366;2022-08-19T05:50:35;26.00;63.40
44477;DHT22;30180;44.788;10.366;2022-08-19T05:53:04;26.00;63.40
44477;DHT22;30180;44.788;10.366;2022-08-19T05:55:32;26.10;63.50
44477;DHT22;30180;44.788;10.366;2022-08-19T05:58:01;26.00;63.40
44477;DHT22;30180;44.788;10.366;2022-08-19T06:00:29;26.00;63.40
44477;DHT22;30180;44.788;10.366;2022-08-19T06:02:59;26.00;63.50
44477;DHT22;30180;44.788;10.366;2022-08-19T06:05:40;26.00;63.50
44477;DHT22;30180;44.788;10.366;2022-08-19T06:08:19;26.00;63.40
44477;DHT22;30180;44.788;10.366;2022-08-19T06:11:13;26.00;63.40
44477;DHT22;30180;44.788;10.366;2022-08-19T06:13:41;26.00;63.50
44477;DHT22;30180;44.788;10.366;2022-08-19T06:16:10;26.00;63.50
44477;DHT22;30180;44.788;10.366;2022-08-19T06:18:39;26.00;63.50
44477;DHT22;30180;44.788;10.366;2022-08-19T06:21:07;26.00;63.50
44477;DHT22;30180;44.788;10.366;2022-08-19T06:23:36;26.00;63.50
44477;DHT22;30180;44.788;10.366;2022-08-19T06:26:04;26.00;63.50
44477;DHT22;30180;44.788;10.366;2022-08-19T06:28:32;26.00;63.60
44477;DHT22;30180;44.788;10.366;2022-08-19T06:31:06;26.00;63.60
44477;DHT22;30180;44.788;10.366;2022-08-19T06:33:34;26.10;63.60
44477;DHT22;30180;44.788;10.366;2022-08-19T06:36:04;26.10;63.60
44477;DHT22;30180;44.788;10.366;2022-08-19T06:38:32;26.10;63.60
44477;DHT22;30180;44.788;10.366;2022-08-19T06:41:02;26.10;63.60
44477;DHT22;30180;44.788;10.366;2022-08-19T06:43:33;26.10;63.60
44477;DHT22;30180;44.788;10.366;2022-08-19T06:46:11;26.10;63.60
44477;DHT22;30180;44.788;10.366;2022-08-19T06:48:41;26.10;63.70
44477;DHT22;30180;44.788;10.366;2022-08-19T06:51:13;26.10;63.70
44477;DHT22;30180;44.788;10.366;2022-08-19T06:53:45;26.10;63.60
44477;DHT22;30180;44.788;10.366;2022-08-19T06:56:15;26.20;63.70
44477;DHT22;30180;44.788;10.366;2022-08-19T06:58:44;26.20;63.70
44477;DHT22;30180;44.788;10.366;2022-08-19T07:01:13;26.20;63.70
44477;DHT22;30180;44.788;10.366;2022-08-19T07:03:41;26.20;63.70
44477;DHT22;30180;44.788;10.366;2022-08-19T07:06:14;26.20;63.70
44477;DHT22;30180;44.788;10.366;2022-08-19T07:09:05;26.30;63.80
44477;DHT22;30180;44.788;10.366;2022-08-19T07:11:33;26.30;63.80
44477;DHT22;30180;44.788;10.366;2022-08-19T07:14:02;26.30;63.80
44477;DHT22;30180;44.788;10.366;2022-08-19T07:16:30;26.30;63.80
44477;DHT22;30180;44.788;10.366;2022-08-19T07:18:59;26.30;63.80
44477;DHT22;30180;44.788;10.366;2022-08-19T07:21:43;26.30;63.80
44477;DHT22;30180;44.788;10.366;2022-08-19T07:24:11;26.30;63.90
44477;DHT22;30180;44.788;10.366;2022-08-19T07:26:41;26.30;63.90
44477;DHT22;30180;44.788;10.366;2022-08-19T07:29:11;26.30;63.90
44477;DHT22;30180;44.788;10.366;2022-08-19T07:31:39;26.30;63.90
44477;DHT22;30180;44.788;10.366;2022-08-19T07:34:10;26.40;64.00
44477;DHT22;30180;44.788;10.366;2022-08-19T07:36:40;26.40;64.00
44477;DHT22;30180;44.788;10.366;2022-08-19T07:39:13;26.40;64.00
44477;DHT22;30180;44.788;10.366;2022-08-19T07:41:43;26.40;64.00
44477;DHT22;30180;44.788;10.366;2022-08-19T07:44:12;26.40;64.00
44477;DHT22;30180;44.788;10.366;2022-08-19T07:46:43;26.40;64.00
44477;DHT22;30180;44.788;10.366;2022-08-19T07:49:16;26.40;64.00
44477;DHT22;30180;44.788;10.366;2022-08-19T07:51:47;26.40;64.10
44477;DHT22;30180;44.788;10.366;2022-08-19T07:54:18;26.40;64.10
44477;DHT22;30180;44.788;10.366;2022-08-19T07:56:47;26.40;64.20
44477;DHT22;30180;44.788;10.366;2022-08-19T07:59:18;26.50;64.30
44477;DHT22;30180;44.788;10.366;2022-08-19T08:01:47;26.50;64.20
44477;DHT22;30180;44.788;10.366;2022-08-19T08:04:17;26.50;64.90
44477;DHT22;30180;44.788;10.366;2022-08-19T08:07:04;26.50;64.20
44477;DHT22;30180;44.788;10.366;2022-08-19T08:09:51;26.50;64.20
44477;DHT22;30180;44.788;10.366;2022-08-19T08:12:26;26.50;64.20
44477;DHT22;30180;44.788;10.366;2022-08-19T08:15:05;26.50;64.20
44477;DHT22;30180;44.788;10.366;2022-08-19T08:17:38;26.50;64.20
44477;DHT22;30180;44.788;10.366;2022-08-19T08:20:18;26.50;64.30
44477;DHT22;30180;44.788;10.366;2022-08-19T08:22:47;26.50;64.30
44477;DHT22;30180;44.788;10.366;2022-08-19T08:25:35;26.50;64.30
44477;DHT22;30180;44.788;10.366;2022-08-19T08:28:05;26.60;64.30
44477;DHT22;30180;44.788;10.366;2022-08-19T08:30:43;26.50;64.30
44477;DHT22;30180;44.788;10.366;2022-08-19T08:33:17;26.60;64.30
44477;DHT22;30180;44.788;10.366;2022-08-19T08:36:01;26.60;64.30
44477;DHT22;30180;44.788;10.366;2022-08-19T08:38:30;26.60;64.30
44477;DHT22;30180;44.788;10.366;2022-08-19T08:41:12;26.50;64.20
44477;DHT22;30180;44.788;10.366;2022-08-19T08:43:47;26.60;64.30
44477;DHT22;30180;44.788;10.366;2022-08-19T08:46:19;26.60;64.30
44477;DHT22;30180;44.788;10.366;2022-08-19T08:49:02;26.60;64.30
44477;DHT22;30180;44.788;10.366;2022-08-19T08:51:38;26.60;64.30
44477;DHT22;30180;44.788;10.366;2022-08-19T08:54:14;26.60;64.30
44477;DHT22;30180;44.788;10.366;2022-08-19T08:56:43;26.60;64.30
44477;DHT22;30180;44.788;10.366;2022-08-19T08:59:16;26.60;64.30
44477;DHT22;30180;44.788;10.366;2022-08-19T09:01:47;26.60;64.30
44477;DHT22;30180;44.788;10.366;2022-08-19T09:04:16;26.60;64.30
44477;DHT22;30180;44.788;10.366;2022-08-19T09:06:53;26.60;64.20
44477;DHT22;30180;44.788;10.366;2022-08-19T09:09:26;26.60;64.20
44477;DHT22;30180;44.788;10.366;2022-08-19T09:12:09;26.60;64.20
44477;DHT22;30180;44.788;10.366;2022-08-19T09:14:44;26.60;64.20
44477;DHT22;30180;44.788;10.366;2022-08-19T09:17:20;26.60;64.20
44477;DHT22;30180;44.788;10.366;2022-08-19T09:19:58;26.60;64.20
44477;DHT22;30180;44.788;10.366;2022-08-19T09:22:27;26.60;64.20
44477;DHT22;30180;44.788;10.366;2022-08-19T09:24:56;26.60;64.20
44477;DHT22;30180;44.788;10.366;2022-08-19T09:27:26;26.60;64.30
44477;DHT22;30180;44.788;10.366;2022-08-19T09:30:11;26.60;64.20
44477;DHT22;30180;44.788;10.366;2022-08-19T09:32:41;26.60;64.20
44477;DHT22;30180;44.788;10.366;2022-08-19T09:35:10;26.60;64.20
44477;DHT22;30180;44.788;10.366;2022-08-19T09:37:39;26.70;64.30
44477;DHT22;30180;44.788;10.366;2022-08-19T09:40:10;26.60;64.20
44477;DHT22;30180;44.788;10.366;2022-08-19T09:42:40;26.70;64.30
44477;DHT22;30180;44.788;10.366;2022-08-19T09:45:17;26.70;64.30
44477;DHT22;30180;44.788;10.366;2022-08-19T09:47:48;26.70;64.30
44477;DHT22;30180;44.788;10.366;2022-08-19T09:50:21;26.70;64.30
44477;DHT22;30180;44.788;10.366;2022-08-19T09:52:49;26.70;64.30
44477;DHT22;30180;44.788;10.366;2022-08-19T09:55:25;26.70;64.90
44477;DHT22;30180;44.788;10.366;2022-08-19T09:58:00;26.70;64.30
44477;DHT22;30180;44.788;10.366;2022-08-19T10:00:29;26.70;64.20
44477;DHT22;30180;44.788;10.366;2022-08-19T10:02:57;26.70;64.20
44477;DHT22;30180;44.788;10.366;2022-08-19T10:05:27;26.70;64.20
44477;DHT22;30180;44.788;10.366;2022-08-19T10:08:15;26.70;64.20
44477;DHT22;30180;44.788;10.366;2022-08-19T10:10:44;26.70;64.20
44477;DHT22;30180;44.788;10.366;2022-08-19T10:13:17;26.70;64.20
44477;DHT22;30180;44.788;10.366;2022-08-19T10:15:49;26.70;64.20
44477;DHT22;30180;44.788;10.366;2022-08-19T10:18:19;26.70;64.20
44477;DHT22;30180;44.788;10.366;2022-08-19T10:20:49;26.70;64.20
44477;DHT22;30180;44.788;10.366;2022-08-19T10:23:19;26.70;64.10
44477;DHT22;30180;44.788;10.366;2022-08-19T10:25:48;26.70;64.10
44477;DHT22;30180;44.788;10.366;2022-08-19T10:28:18;26.70;64.10
44477;DHT22;30180;44.788;10.366;2022-08-19T10:30:46;26.70;64.10
44477;DHT22;30180;44.788;10.366;2022-08-19T10:33:14;26.70;64.00
44477;DHT22;30180;44.788;10.366;2022-08-19T10:36:06;26.70;64.00
44477;DHT22;30180;44.788;10.366;2022-08-19T10:38:34;26.70;63.90
44477;DHT22;30180;44.788;10.366;2022-08-19T10:41:11;26.70;63.90
44477;DHT22;30180;44.788;10.366;2022-08-19T10:43:41;26.70;63.90
44477;DHT22;30180;44.788;10.366;2022-08-19T10:46:14;26.70;63.80
44477;DHT22;30180;44.788;10.366;2022-08-19T10:48:43;26.70;64.50
44477;DHT22;30180;44.788;10.366;2022-08-19T10:51:11;26.60;63.70
44477;DHT22;30180;44.788;10.366;2022-08-19T10:54:00;26.60;63.70
44477;DHT22;30180;44.788;10.366;2022-08-19T10:57:00;26.60;63.70
44477;DHT22;30180;44.788;10.366;2022-08-19T10:59:29;26.60;63.70
44477;DHT22;30180;44.788;10.366;2022-08-19T11:02:04;26.60;63.70
44477;DHT22;30180;44.788;10.366;2022-08-19T11:04:33;26.60;63.70
44477;DHT22;30180;44.788;10.366;2022-08-19T11:07:01;26.50;63.60
44477;DHT22;30180;44.788;10.366;2022-08-19T11:09:30;26.60;63.70
44477;DHT22;30180;44.788;10.366;2022-08-19T11:12:00;26.50;63.60
44477;DHT22;30180;44.788;10.366;2022-08-19T11:14:32;26.50;63.50
44477;DHT22;30180;44.788;10.366;2022-08-19T11:17:02;26.50;63.50
44477;DHT22;30180;44.788;10.366;2022-08-19T11:19:31;26.50;63.50
44477;DHT22;30180;44.788;10.366;2022-08-19T11:22:00;26.50;63.50
44477;DHT22;30180;44.788;10.366;2022-08-19T11:24:30;26.50;63.50
44477;DHT22;30180;44.788;10.366;2022-08-19T11:27:04;26.50;63.50
44477;DHT22;30180;44.788;10.366;2022-08-19T11:29:35;26.50;63.50
44477;DHT22;30180;44.788;10.366;2022-08-19T11:32:06;26.60;63.60
44477;DHT22;30180;44.788;10.366;2022-08-19T11:34:36;26.50;63.40
44477;DHT22;30180;44.788;10.366;2022-08-19T11:37:04;26.50;63.40
44477;DHT22;30180;44.788;10.366;2022-08-19T11:39:35;26.50;63.40
44477;DHT22;30180;44.788;10.366;2022-08-19T11:42:04;26.50;63.40
44477;DHT22;30180;44.788;10.366;2022-08-19T11:44:55;26.50;63.30
44477;DHT22;30180;44.788;10.366;2022-08-19T11:47:23;26.50;63.30
44477;DHT22;30180;44.788;10.366;2022-08-19T11:49:53;26.50;63.30
44477;DHT22;30180;44.788;10.366;2022-08-19T11:52:21;26.50;63.20
44477;DHT22;30180;44.788;10.366;2022-08-19T11:54:49;26.50;63.20
44477;DHT22;30180;44.788;10.366;2022-08-19T11:57:17;26.50;63.20
44477;DHT22;30180;44.788;10.366;2022-08-19T11:59:49;26.50;63.10
44477;DHT22;30180;44.788;10.366;2022-08-19T12:02:19;26.50;63.10
44477;DHT22;30180;44.788;10.366;2022-08-19T12:04:48;26.50;63.10
44477;DHT22;30180;44.788;10.366;2022-08-19T12:07:16;26.50;63.10
44477;DHT22;30180;44.788;10.366;2022-08-19T12:09:45;26.50;63.10
44477;DHT22;30180;44.788;10.366;2022-08-19T12:12:15;26.50;63.00
44477;DHT22;30180;44.788;10.366;2022-08-19T12:14:43;26.50;63.00
44477;DHT22;30180;44.788;10.366;2022-08-19T12:17:13;26.50;63.00
44477;DHT22;30180;44.788;10.366;2022-08-19T12:19:42;26.50;62.90
44477;DHT22;30180;44.788;10.366;2022-08-19T12:22:11;26.50;63.00
44477;DHT22;30180;44.788;10.366;2022-08-19T12:24:39;26.50;62.90
44477;DHT22;30180;44.788;10.366;2022-08-19T12:27:07;26.50;62.90
44477;DHT22;30180;44.788;10.366;2022-08-19T12:29:38;26.50;62.90
44477;DHT22;30180;44.788;10.366;2022-08-19T12:32:08;26.50;62.90
44477;DHT22;30180;44.788;10.366;2022-08-19T12:34:38;26.50;62.80
44477;DHT22;30180;44.788;10.366;2022-08-19T12:37:08;26.50;62.70
44477;DHT22;30180;44.788;10.366;2022-08-19T12:39:39;26.50;62.70
44477;DHT22;30180;44.788;10.366;2022-08-19T12:42:09;26.50;62.60
44477;DHT22;30180;44.788;10.366;2022-08-19T12:44:38;26.50;62.60
44477;DHT22;30180;44.788;10.366;2022-08-19T12:47:10;26.50;62.50
44477;DHT22;30180;44.788;10.366;2022-08-19T12:49:41;26.50;62.50
44477;DHT22;30180;44.788;10.366;2022-08-19T12:52:23;26.50;62.50
44477;DHT22;30180;44.788;10.366;2022-08-19T12:54:51;26.50;62.50
44477;DHT22;30180;44.788;10.366;2022-08-19T12:57:21;26.50;62.50
44477;DHT22;30180;44.788;10.366;2022-08-19T12:59:58;26.50;62.40
44477;DHT22;30180;44.788;10.366;2022-08-19T13:02:27;26.50;62.40
44477;DHT22;30180;44.788;10.366;2022-08-19T13:04:55;26.50;62.40
44477;DHT22;30180;44.788;10.366;2022-08-19T13:07:26;26.50;62.30
44477;DHT22;30180;44.788;10.366;2022-08-19T13:09:57;26.50;62.30
44477;DHT22;30180;44.788;10.366;2022-08-19T13:12:25;26.50;62.30
44477;DHT22;30180;44.788;10.366;2022-08-19T13:14:55;26.50;62.30
44477;DHT22;30180;44.788;10.366;2022-08-19T13:17:26;26.50;62.30
44477;DHT22;30180;44.788;10.366;2022-08-19T13:19:54;26.50;62.30
44477;DHT22;30180;44.788;10.366;2022-08-19T13:22:22;26.40;62.20
44477;DHT22;30180;44.788;10.366;2022-08-19T13:24:53;26.50;62.30
44477;DHT22;30180;44.788;10.366;2022-08-19T13:27:21;26.50;62.30
44477;DHT22;30180;44.788;10.366;2022-08-19T13:29:49;26.50;62.20
44477;DHT22;30180;44.788;10.366;2022-08-19T13:32:35;26.50;62.20
44477;DHT22;30180;44.788;10.366;2022-08-19T13:35:20;26.50;62.20
44477;DHT22;30180;44.788;10.366;2022-08-19T13:37:48;26.50;62.10
44477;DHT22;30180;44.788;10.366;2022-08-19T13:40:20;26.50;62.10
44477;DHT22;30180;44.788;10.366;2022-08-19T13:42:52;26.50;62.10
44477;DHT22;30180;44.788;10.366;2022-08-19T13:45:22;26.50;62.10
44477;DHT22;30180;44.788;10.366;2022-08-19T13:47:52;26.50;62.10
44477;DHT22;30180;44.788;10.366;2022-08-19T13:50:27;26.50;62.10
44477;DHT22;30180;44.788;10.366;2022-08-19T13:52:56;26.50;62.00
44477;DHT22;30180;44.788;10.366;2022-08-19T13:55:26;26.50;62.00
44477;DHT22;30180;44.788;10.366;2022-08-19T13:57:56;26.50;62.00
44477;DHT22;30180;44.788;10.366;2022-08-19T14:00:26;26.50;62.00
44477;DHT22;30180;44.788;10.366;2022-08-19T14:02:56;26.50;61.90
44477;DHT22;30180;44.788;10.366;2022-08-19T14:05:25;26.50;61.90
44477;DHT22;30180;44.788;10.366;2022-08-19T14:07:54;26.50;61.90
44477;DHT22;30180;44.788;10.366;2022-08-19T14:10:25;26.50;61.80
44477;DHT22;30180;44.788;10.366;2022-08-19T14:12:53;26.50;61.80
44477;DHT22;30180;44.788;10.366;2022-08-19T14:15:22;26.40;61.70
44477;DHT22;30180;44.788;10.366;2022-08-19T14:17:51;26.50;61.80
44477;DHT22;30180;44.788;10.366;2022-08-19T14:20:19;26.40;61.70
44477;DHT22;30180;44.788;10.366;2022-08-19T14:22:52;26.50;61.70
44477;DHT22;30180;44.788;10.366;2022-08-19T14:25:22;26.50;61.70
44477;DHT22;30180;44.788;10.366;2022-08-19T14:27:52;26.50;61.70
44477;DHT22;30180;44.788;10.366;2022-08-19T14:30:23;26.50;61.70
44477;DHT22;30180;44.788;10.366;2022-08-19T14:32:53;26.50;61.60
44477;DHT22;30180;44.788;10.366;2022-08-19T14:35:22;26.50;61.70
44477;DHT22;30180;44.788;10.366;2022-08-19T14:37:51;26.40;61.60
44477;DHT22;30180;44.788;10.366;2022-08-19T14:40:24;26.50;61.70
44477;DHT22;30180;44.788;10.366;2022-08-19T14:42:55;26.50;61.60
44477;DHT22;30180;44.788;10.366;2022-08-19T14:45:27;26.50;61.60
44477;DHT22;30180;44.788;10.366;2022-08-19T14:47:56;26.50;61.60
44477;DHT22;30180;44.788;10.366;2022-08-19T14:50:26;26.50;61.60
44477;DHT22;30180;44.788;10.366;2022-08-19T14:52:59;26.50;61.50
44477;DHT22;30180;44.788;10.366;2022-08-19T14:55:41;26.50;61.50
44477;DHT22;30180;44.788;10.366;2022-08-19T14:58:10;26.50;61.50
44477;DHT22;30180;44.788;10.366;2022-08-19T15:00:57;26.50;61.50
44477;DHT22;30180;44.788;10.366;2022-08-19T15:03:27;26.50;61.50
44477;DHT22;30180;44.788;10.366;2022-08-19T15:05:56;26.50;61.50
44477;DHT22;30180;44.788;10.366;2022-08-19T15:08:25;26.50;61.40
44477;DHT22;30180;44.788;10.366;2022-08-19T15:10:53;26.50;61.40
44477;DHT22;30180;44.788;10.366;2022-08-19T15:13:24;26.50;61.40
44477;DHT22;30180;44.788;10.366;2022-08-19T15:15:52;26.50;61.40
44477;DHT22;30180;44.788;10.366;2022-08-19T15:18:21;26.50;61.30
44477;DHT22;30180;44.788;10.366;2022-08-19T15:20:49;26.50;61.30
44477;DHT22;30180;44.788;10.366;2022-08-19T15:23:19;26.50;61.30
44477;DHT22;30180;44.788;10.366;2022-08-19T15:25:47;26.50;61.30
44477;DHT22;30180;44.788;10.366;2022-08-19T15:28:18;26.50;61.20
44477;DHT22;30180;44.788;10.366;2022-08-19T15:30:48;26.50;61.20
44477;DHT22;30180;44.788;10.366;2022-08-19T15:33:16;26.40;61.10
44477;DHT22;30180;44.788;10.366;2022-08-19T15:35:47;26.40;61.10
44477;DHT22;30180;44.788;10.366;2022-08-19T15:38:18;26.40;61.10
44477;DHT22;30180;44.788;10.366;2022-08-19T15:40:49;26.40;61.10
44477;DHT22;30180;44.788;10.366;2022-08-19T15:43:18;26.40;61.10